createdAt,value
2022-08-05T00:02:07.403Z,23.28
2022-08-05T00:04:40.439Z,23.22
2022-08-05T00:07:27.341Z,23.21
2022-08-05T00:10:06.840Z,23.20
2022-08-05T00:12:44.294Z,23.20
2022-08-05T00:15:56.099Z,23.13
2022-08-05T00:18:22.608Z,23.11
2022-08-05T00:20:56.126Z,23.11
2022-08-05T00:23:31.025Z,23.11
2022-08-05T00:26:20.115Z,23.09
2022-08-05T00:28:52.823Z,23.07
2022-08-05T00:31:41.366Z,23.03
2022-08-05T00:34:56.661Z,22.96
2022-08-05T00:37:14.300Z,22.87
2022-08-05T00:39:58.764Z,22.79
2022-08-05T00:42:36.717Z,22.73
2022-08-05T00:45:11.599Z,22.69
2022-08-05T00:47:57.266Z,22.65
2022-08-05T00:50:37.071Z,22.60
2022-08-05T00:53:59.796Z,22.57
2022-08-05T00:56:02.650Z,22.54
2022-08-05T00:58:36.142Z,22.51
2022-08-05T01:01:11.032Z,22.50
2022-08-05T01:03:45.048Z,22.47
2022-08-05T01:06:22.457Z,22.43
2022-08-05T01:09:06.286Z,22.40
2022-08-05T01:11:39.775Z,22.39
2022-08-05T01:14:32.640Z,22.39
2022-08-05T01:17:12.167Z,22.37
2022-08-05T01:20:03.567Z,22.32
2022-08-05T01:22:47.318Z,22.30
2022-08-05T01:25:19.764Z,22.31
2022-08-05T01:28:17.618Z,22.34
2022-08-05T01:30:57.376Z,22.35
2022-08-05T01:33:35.968Z,22.36
2022-08-05T01:36:12.981Z,22.41
2022-08-05T01:38:49.849Z,22.47
2022-08-05T01:41:25.551Z,22.51
2022-08-05T01:43:58.698Z,22.56
2022-08-05T01:46:42.716Z,22.59
2022-08-05T01:49:22.866Z,22.61
2022-08-05T01:52:17.574Z,22.62
2022-08-05T01:54:54.372Z,22.61
2022-08-05T01:58:11.867Z,22.59
2022-08-05T02:00:30.253Z,22.60
2022-08-05T02:03:31.745Z,22.60
2022-08-05T02:06:23.971Z,22.62
2022-08-05T02:08:59.958Z,22.62
2022-08-05T02:11:52.311Z,22.64
2022-08-05T02:14:32.787Z,22.64
2022-08-05T02:18:28.745Z,22.61
2022-08-05T02:20:26.257Z,22.59
2022-08-05T02:23:01.900Z,22.57
2022-08-05T02:25:50.031Z,22.55
2022-08-05T02:28:31.128Z,22.51
2022-08-05T02:31:14.612Z,22.50
2022-08-05T02:34:09.964Z,22.48
2022-08-05T02:36:53.529Z,22.46
2022-08-05T02:39:28.408Z,22.40
2022-08-05T02:42:02.281Z,22.37
2022-08-05T02:44:36.489Z,22.32
2022-08-05T02:47:10.271Z,22.27
2022-08-05T02:49:44.666Z,22.19
2022-08-05T02:52:30.220Z,22.09
2022-08-05T02:55:05.071Z,21.95
2022-08-05T02:58:11.078Z,21.86
2022-08-05T03:00:34.015Z,21.77
2022-08-05T03:03:10.252Z,21.73
2022-08-05T03:06:56.939Z,21.70
2022-08-05T03:08:36.601Z,21.68
2022-08-05T03:11:56.350Z,21.68
2022-08-05T03:14:14.485Z,21.65
2022-08-05T03:16:47.228Z,21.66
2022-08-05T03:19:34.032Z,21.62
2022-08-05T03:22:16.325Z,21.63
2022-08-05T03:24:52.250Z,21.63
2022-08-05T03:27:29.637Z,21.59
2022-08-05T03:30:12.213Z,21.58
2022-08-05T03:32:44.659Z,21.59
2022-08-05T03:35:18.047Z,21.57
2022-08-05T03:37:50.857Z,21.58
2022-08-05T03:40:31.870Z,21.56
2022-08-05T03:43:58.405Z,21.51
2022-08-05T03:45:58.635Z,21.49
2022-08-05T03:48:35.064Z,21.44
2022-08-05T03:52:48.835Z,21.43
2022-08-05T03:55:50.833Z,21.42
2022-08-05T03:57:16.574Z,21.42
2022-08-05T03:59:56.110Z,21.43
2022-08-05T04:02:37.684Z,21.44
2022-08-05T04:05:12.260Z,21.45
2022-08-05T04:07:57.403Z,21.45
2022-08-05T04:10:37.358Z,21.46
2022-08-05T04:13:10.116Z,21.48
2022-08-05T04:16:03.221Z,21.48
2022-08-05T04:18:34.941Z,21.51
2022-08-05T04:21:07.890Z,21.50
2022-08-05T04:24:05.874Z,21.50
2022-08-05T04:26:36.580Z,21.52
2022-08-05T04:29:08.853Z,21.50
2022-08-05T04:31:41.487Z,21.47
2022-08-05T04:34:31.846Z,21.46
2022-08-05T04:37:06.569Z,21.42
2022-08-05T04:39:39.125Z,21.37
2022-08-05T04:42:12.371Z,21.33
2022-08-05T04:44:45.304Z,21.32
2022-08-05T04:47:20.029Z,21.28
2022-08-05T04:50:01.936Z,21.25
2022-08-05T04:52:43.053Z,21.23
2022-08-05T04:55:17.193Z,21.17
2022-08-05T04:58:12.414Z,21.12
2022-08-05T05:00:45.122Z,21.08
2022-08-05T05:03:24.786Z,21.08
2022-08-05T05:06:40.090Z,21.08
2022-08-05T05:08:52.729Z,21.09
2022-08-05T05:11:25.105Z,21.10
2022-08-05T05:14:15.975Z,21.15
2022-08-05T05:16:48.678Z,21.18
2022-08-05T05:19:23.670Z,21.21
2022-08-05T06:10:52.718Z,21.29
2022-08-05T06:13:25.568Z,21.45
2022-08-05T06:16:29.448Z,21.54
2022-08-05T06:18:53.585Z,21.65
2022-08-05T06:21:36.554Z,21.74
2022-08-05T06:24:11.372Z,21.82
2022-08-05T06:26:51.316Z,21.86
2022-08-05T06:29:49.689Z,21.90
2022-08-05T06:32:25.091Z,21.99
2022-08-05T06:35:06.037Z,22.06
2022-08-05T06:37:55.856Z,22.15
2022-08-05T06:40:32.374Z,22.21
2022-08-05T06:43:04.924Z,22.26
2022-08-05T06:45:45.128Z,22.32
2022-08-05T06:48:52.639Z,22.41
2022-08-05T06:51:23.751Z,22.48
2022-08-05T06:54:02.054Z,22.58
2022-08-05T06:56:35.152Z,22.70
2022-08-05T06:59:08.379Z,22.80
2022-08-05T07:01:42.420Z,22.90
2022-08-05T07:04:14.689Z,22.97
2022-08-05T07:06:51.060Z,23.03
2022-08-05T07:09:24.865Z,23.06
2022-08-05T07:12:00.397Z,23.10
2022-08-05T07:14:51.367Z,23.11
2022-08-05T07:18:00.822Z,23.09
2022-08-05T07:20:33.076Z,23.07
2022-08-05T07:23:06.566Z,23.06
2022-08-05T07:25:55.601Z,23.04
2022-08-05T07:28:29.082Z,23.02
2022-08-05T07:31:01.757Z,22.99
2022-08-05T07:33:37.120Z,22.95
2022-08-05T07:36:19.889Z,22.88
2022-08-05T07:38:54.663Z,22.85
2022-08-05T07:42:14.288Z,22.83
2022-08-05T07:44:19.736Z,22.81
2022-08-05T07:46:52.209Z,22.81
2022-08-05T07:49:25.877Z,22.81
2022-08-05T07:51:59.375Z,22.78
2022-08-05T07:54:33.543Z,22.77
2022-08-05T07:57:22.718Z,22.70
2022-08-05T08:00:05.475Z,22.63
2022-08-05T08:03:15.270Z,22.58
2022-08-05T08:05:39.520Z,22.55
2022-08-05T08:08:13.257Z,22.55
2022-08-05T08:10:49.004Z,22.55
2022-08-05T08:13:21.979Z,22.55
2022-08-05T08:16:34.490Z,22.55
2022-08-05T08:18:53.606Z,22.53
2022-08-05T08:21:26.793Z,22.48
2022-08-05T08:24:02.938Z,22.48
2022-08-05T08:26:36.552Z,22.50
2022-08-05T08:30:03.061Z,22.50
2022-08-05T08:32:05.507Z,22.53
2022-08-05T08:34:43.290Z,22.56
2022-08-05T08:37:18.781Z,22.59
2022-08-05T08:39:50.819Z,22.62
2022-08-05T08:42:34.043Z,22.63
2022-08-05T08:45:25.307Z,22.64
2022-08-05T08:48:12.330Z,22.66
2022-08-05T08:51:04.108Z,22.70
2022-08-05T08:53:46.780Z,22.74
2022-08-05T08:56:20.960Z,22.76
2022-08-05T08:58:54.686Z,22.76
2022-08-05T09:01:26.843Z,22.73
2022-08-05T09:04:00.343Z,22.69
2022-08-05T09:06:32.302Z,22.67
2022-08-05T09:09:08.137Z,22.67
2022-08-05T09:11:52.711Z,22.65
2022-08-05T09:14:56.411Z,22.65
2022-08-05T09:17:41.243Z,22.61
2022-08-05T09:20:12.442Z,22.58
2022-08-05T09:23:18.283Z,22.58
2022-08-05T09:26:06.235Z,22.58
2022-08-05T09:28:40.717Z,22.57
2022-08-05T09:31:43.241Z,22.55
2022-08-05T09:34:09.777Z,22.55
2022-08-05T09:36:56.369Z,22.55
2022-08-05T09:39:45.215Z,22.57
2022-08-05T09:42:24.499Z,22.59
2022-08-05T09:46:05.080Z,22.58
2022-08-05T09:47:58.721Z,22.56
2022-08-05T09:50:44.410Z,22.56
2022-08-05T09:53:25.846Z,22.59
2022-08-05T09:56:12.982Z,22.65
2022-08-05T09:58:56.493Z,22.69
2022-08-05T10:01:31.778Z,22.76
2022-08-05T10:04:12.988Z,22.80
2022-08-05T10:06:59.488Z,22.82
2022-08-05T10:09:45.291Z,22.81
2022-08-05T10:12:30.072Z,22.76
2022-08-05T10:15:16.991Z,22.65
2022-08-05T10:18:16.885Z,22.56
2022-08-05T10:20:51.493Z,22.46
2022-08-05T10:23:55.687Z,22.45
2022-08-05T10:26:52.322Z,22.45
2022-08-05T10:29:23.541Z,22.46
2022-08-05T10:32:52.276Z,22.44
2022-08-05T10:35:01.061Z,22.39
2022-08-05T10:37:40.407Z,22.38
2022-08-05T10:40:28.013Z,22.37
2022-08-05T10:43:12.403Z,22.37
2022-08-05T10:45:55.753Z,22.37
2022-08-05T10:48:52.772Z,22.29
2022-08-05T10:51:57.542Z,22.23
2022-08-05T10:55:01.970Z,22.22
2022-08-05T10:57:35.047Z,22.20
2022-08-05T11:00:19.731Z,22.18
2022-08-05T11:03:24.233Z,22.18
2022-08-05T11:06:15.069Z,22.17
2022-08-05T11:09:16.740Z,22.17
2022-08-05T11:11:53.573Z,22.12
2022-08-05T11:14:57.766Z,22.07
2022-08-05T11:17:57.318Z,22.05
2022-08-05T11:20:41.660Z,22.03
2022-08-05T11:23:25.628Z,22.03
2022-08-05T11:26:16.124Z,22.05
2022-08-05T11:29:13.098Z,22.04
2022-08-05T11:31:58.122Z,22.04
2022-08-05T11:34:37.601Z,22.02
2022-08-05T11:38:30.351Z,22.00
2022-08-05T11:40:03.589Z,21.97
2022-08-05T11:42:41.273Z,21.92
2022-08-05T11:45:23.132Z,21.92
2022-08-05T11:48:09.726Z,21.94
2022-08-05T11:50:43.873Z,21.99
2022-08-05T11:53:19.394Z,22.04
2022-08-05T11:55:56.164Z,22.08
2022-08-05T11:58:36.100Z,22.13
2022-08-05T12:01:19.022Z,22.20
2022-08-05T12:03:56.353Z,22.22
2022-08-05T12:06:29.482Z,22.23
2022-08-05T12:09:04.587Z,22.26
2022-08-05T12:11:40.558Z,22.34
2022-08-05T12:14:14.142Z,22.40
2022-08-05T12:16:49.164Z,22.48
2022-08-05T12:20:26.796Z,22.54
2022-08-05T12:22:20.264Z,22.61
2022-08-05T12:24:52.384Z,22.60
2022-08-05T12:27:33.117Z,22.61
2022-08-05T12:30:10.502Z,22.67
2022-08-05T12:32:51.256Z,22.74
2022-08-05T12:35:24.631Z,22.79
2022-08-05T12:38:10.179Z,22.82
2022-08-05T12:40:44.115Z,22.88
2022-08-05T12:43:21.095Z,22.94
2022-08-05T12:45:56.606Z,22.98
2022-08-05T12:48:38.585Z,23.01
2022-08-05T12:52:11.032Z,23.04
2022-08-05T12:54:16.824Z,23.09
2022-08-05T12:56:56.729Z,23.22
2022-08-05T13:00:08.451Z,23.38
2022-08-05T13:02:27.256Z,23.72
2022-08-05T13:05:06.364Z,24.27
2022-08-05T13:08:00.057Z,24.90
2022-08-05T13:10:33.228Z,26.22
2022-08-05T13:13:06.372Z,27.14
2022-08-05T13:15:50.845Z,28.09
2022-08-05T13:18:23.978Z,28.47
2022-08-05T13:20:56.150Z,29.02
2022-08-05T13:23:28.075Z,29.63
2022-08-05T13:26:03.544Z,29.72
2022-08-05T13:28:35.591Z,29.43
2022-08-05T13:31:16.089Z,28.84
2022-08-05T13:34:22.451Z,28.16
2022-08-05T13:36:40.211Z,27.65
2022-08-05T13:39:24.630Z,27.36
2022-08-05T13:42:05.994Z,27.09
2022-08-05T13:44:40.959Z,26.81
2022-08-05T13:47:35.154Z,26.53
2022-08-05T13:50:12.409Z,26.29
2022-08-05T13:52:50.067Z,25.99
2022-08-05T13:55:41.720Z,25.80
2022-08-05T13:58:14.134Z,25.89
2022-08-05T14:01:02.603Z,25.95
2022-08-05T14:03:34.649Z,26.14
2022-08-05T14:06:26.160Z,26.30
2022-08-05T14:08:59.555Z,26.35
2022-08-05T14:11:31.700Z,26.22
2022-08-05T14:14:26.054Z,26.04
2022-08-05T14:17:05.019Z,25.76
2022-08-05T14:19:55.361Z,25.65
2022-08-05T14:22:30.335Z,25.54
2022-08-05T14:25:19.183Z,25.42
2022-08-05T14:27:54.252Z,25.37
2022-08-05T14:30:28.098Z,25.33
2022-08-05T14:33:00.302Z,25.19
2022-08-05T14:35:37.353Z,25.11
2022-08-05T14:38:31.935Z,25.11
2022-08-05T14:41:07.763Z,25.03
2022-08-05T14:43:58.789Z,24.89
2022-08-05T14:46:32.471Z,24.64
2022-08-05T14:49:08.401Z,24.46
2022-08-05T14:51:42.398Z,24.25
2022-08-05T14:54:30.227Z,24.14
2022-08-05T14:57:09.737Z,24.29
2022-08-05T14:59:45.697Z,24.54
2022-08-05T15:02:17.681Z,24.77
2022-08-05T15:04:49.991Z,24.89
2022-08-05T15:08:08.834Z,24.95
2022-08-05T15:10:14.658Z,24.92
2022-08-05T15:13:00.313Z,24.91
2022-08-05T15:15:55.899Z,24.98
2022-08-05T15:18:25.304Z,24.90
2022-08-05T15:20:57.225Z,24.86
2022-08-05T15:23:39.717Z,24.77
2022-08-05T15:26:11.625Z,24.73
2022-08-05T15:28:44.352Z,24.75
2022-08-05T15:31:16.614Z,24.65
2022-08-05T15:34:05.910Z,24.47
2022-08-05T15:36:40.813Z,24.26
2022-08-05T15:41:01.607Z,23.94
2022-08-05T15:42:50.087Z,23.01
2022-08-05T15:44:56.844Z,22.31
2022-08-05T15:47:28.800Z,21.65
2022-08-05T15:50:03.868Z,21.20
2022-08-05T15:52:53.774Z,20.93
2022-08-05T15:56:02.934Z,20.71
2022-08-05T15:58:19.430Z,20.54
2022-08-05T16:01:11.919Z,20.46
2022-08-05T16:03:48.716Z,20.43
2022-08-05T16:06:23.400Z,20.42
2022-08-05T16:08:55.746Z,20.47
2022-08-05T16:11:42.508Z,20.52
2022-08-05T16:14:17.082Z,20.51
2022-08-05T16:16:50.062Z,20.53
2022-08-05T16:20:03.371Z,20.50
2022-08-05T16:22:15.474Z,20.48
2022-08-05T16:24:51.975Z,20.43
2022-08-05T16:27:47.450Z,20.42
2022-08-05T16:30:25.964Z,20.39
2022-08-05T16:32:59.271Z,20.35
2022-08-05T16:35:33.480Z,20.37
2022-08-05T16:38:18.732Z,20.40
2022-08-05T16:41:00.607Z,20.44
2022-08-05T16:43:35.019Z,20.46
2022-08-05T16:46:12.869Z,20.50
2022-08-05T16:48:56.754Z,20.55
2022-08-05T16:51:30.999Z,20.55
2022-08-05T16:54:17.094Z,20.58
2022-08-05T16:56:51.980Z,20.49
2022-08-05T16:59:24.233Z,20.46
2022-08-05T17:02:00.851Z,20.42
2022-08-05T17:04:32.989Z,20.39
2022-08-05T17:07:11.128Z,20.41
2022-08-05T17:09:57.325Z,20.46
2022-08-05T17:12:51.882Z,20.54
2022-08-05T17:15:23.368Z,20.62
2022-08-05T17:18:01.462Z,20.63
2022-08-05T17:20:33.409Z,20.60
2022-08-05T17:23:05.784Z,20.59
2022-08-05T17:25:40.459Z,20.61
2022-08-05T17:28:15.568Z,20.63
2022-08-05T17:30:50.800Z,20.61
2022-08-05T17:33:24.324Z,20.61
2022-08-05T17:36:07.948Z,20.56
2022-08-05T17:38:42.161Z,20.54
2022-08-05T17:42:18.347Z,20.54
2022-08-05T17:44:06.695Z,20.51
2022-08-05T17:46:43.144Z,20.48
2022-08-05T17:49:15.125Z,20.48
2022-08-05T17:51:47.650Z,20.47
2022-08-05T17:54:23.582Z,20.49
2022-08-05T17:56:55.550Z,20.44
2022-08-05T17:59:30.683Z,20.43
2022-08-05T18:02:10.720Z,20.36
2022-08-05T18:04:51.348Z,20.32
2022-08-05T18:07:25.547Z,20.26
2022-08-05T18:10:20.378Z,20.24
2022-08-05T18:12:53.257Z,20.26
2022-08-05T18:15:27.487Z,20.21
2022-08-05T18:18:07.852Z,20.15
2022-08-05T18:20:43.466Z,20.05
2022-08-05T18:23:24.627Z,20.05
2022-08-05T18:26:02.148Z,19.99
2022-08-05T18:28:36.804Z,19.96
2022-08-05T18:31:11.087Z,19.93
2022-08-05T18:33:46.707Z,19.90
2022-08-05T18:36:19.841Z,19.90
2022-08-05T18:38:59.962Z,19.87
2022-08-05T18:41:55.215Z,19.85
2022-08-05T18:44:33.397Z,19.83
2022-08-05T18:47:07.935Z,19.81
2022-08-05T18:50:02.431Z,19.75
2022-08-05T18:52:38.006Z,19.71
2022-08-05T18:55:11.112Z,19.66
2022-08-05T18:57:53.388Z,19.64
2022-08-05T19:00:29.220Z,19.61
2022-08-05T19:03:03.916Z,19.51
2022-08-05T19:06:11.039Z,19.47
2022-08-05T19:08:30.174Z,19.47
2022-08-05T19:11:05.149Z,19.45
2022-08-05T19:13:39.194Z,19.45
2022-08-05T19:16:25.163Z,19.43
2022-08-05T19:19:01.990Z,19.43
2022-08-05T19:21:37.270Z,19.40
2022-08-05T19:24:12.942Z,19.42
2022-08-05T19:26:54.904Z,19.40
2022-08-05T19:29:35.966Z,19.38
2022-08-05T19:32:11.656Z,19.38
2022-08-05T19:34:54.975Z,19.38
2022-08-05T19:37:30.112Z,19.43
2022-08-05T19:40:19.279Z,19.43
2022-08-05T19:43:04.939Z,19.48
2022-08-05T19:45:37.515Z,19.56
2022-08-05T19:48:14.444Z,19.62
2022-08-05T19:50:46.581Z,19.65
2022-08-05T19:54:04.340Z,19.64
2022-08-05T19:56:15.639Z,19.58
2022-08-05T19:58:53.751Z,19.58
2022-08-05T20:01:28.478Z,19.59
2022-08-05T20:04:01.034Z,19.62
2022-08-05T20:06:37.780Z,19.60
2022-08-05T20:09:17.846Z,19.50
2022-08-05T20:11:49.981Z,19.41
2022-08-05T20:14:27.022Z,19.34
2022-08-05T20:16:59.300Z,19.35
2022-08-05T20:19:36.077Z,19.35
2022-08-05T20:22:09.541Z,19.34
2022-08-05T20:24:41.709Z,19.33
2022-08-05T20:27:13.918Z,19.32
2022-08-05T20:29:57.449Z,19.30
2022-08-05T20:32:30.469Z,19.29
2022-08-05T20:35:05.477Z,19.32
2022-08-05T20:38:05.441Z,19.33
2022-08-05T20:40:31.851Z,19.35
2022-08-05T20:43:04.732Z,19.30
2022-08-05T20:45:56.271Z,19.29
2022-08-05T20:48:29.255Z,19.25
2022-08-05T20:51:07.988Z,19.26
2022-08-05T20:53:40.931Z,19.23
2022-08-05T20:56:13.115Z,19.21
2022-08-05T20:58:45.040Z,19.22
2022-08-05T21:01:17.005Z,19.20
2022-08-05T21:03:49.030Z,19.20
2022-08-05T21:06:27.932Z,19.19
2022-08-05T21:09:00.728Z,19.17
2022-08-05T21:12:09.901Z,19.14
2022-08-05T21:14:26.669Z,19.10
2022-08-05T21:16:58.889Z,19.07
2022-08-05T21:19:46.694Z,19.03
2022-08-05T21:22:21.834Z,19.01
2022-08-05T21:24:56.386Z,19.01
2022-08-05T21:27:29.039Z,19.02
2022-08-05T21:30:11.512Z,18.96
2022-08-05T21:32:49.578Z,18.91
2022-08-05T21:35:30.056Z,18.91
2022-08-05T21:38:14.737Z,18.90
2022-08-05T21:40:49.101Z,18.89
2022-08-05T21:43:24.556Z,18.86
2022-08-05T21:46:00.150Z,18.81
2022-08-05T21:48:32.446Z,18.80
2022-08-05T21:52:15.532Z,18.83
2022-08-05T21:54:03.922Z,18.83
2022-08-05T21:56:36.084Z,18.84
2022-08-05T21:59:22.494Z,18.78
2022-08-05T22:01:55.977Z,18.72
2022-08-05T22:04:27.961Z,18.70
2022-08-05T22:06:59.885Z,18.70
2022-08-05T22:09:46.048Z,18.70
2022-08-05T22:12:18.410Z,18.70
2022-08-05T22:14:58.723Z,18.71
2022-08-05T22:17:31.821Z,18.74
2022-08-05T22:20:14.872Z,18.71
2022-08-05T22:23:16.838Z,18.70
2022-08-05T22:26:09.537Z,18.70
2022-08-05T22:28:43.422Z,18.62
2022-08-05T22:31:17.308Z,18.59
2022-08-05T22:33:58.571Z,18.59
2022-08-05T22:36:33.305Z,18.56
2022-08-05T22:39:09.705Z,18.54
2022-08-05T22:42:09.945Z,18.53
2022-08-05T22:44:35.582Z,18.52
2022-08-05T22:47:07.437Z,18.48
2022-08-05T22:50:20.595Z,18.49
2022-08-05T22:52:34.381Z,18.50
2022-08-05T22:55:18.319Z,18.50
2022-08-05T22:57:52.675Z,18.49
2022-08-05T23:00:24.623Z,18.48
2022-08-05T23:02:58.729Z,18.44
2022-08-05T23:05:30.739Z,18.42
2022-08-05T23:08:07.850Z,18.44
2022-08-05T23:10:43.417Z,18.41
2022-08-05T23:13:15.219Z,18.38
2022-08-05T23:15:50.359Z,18.33
2022-08-05T23:18:22.932Z,18.31
2022-08-05T23:20:54.944Z,18.31
2022-08-05T23:23:29.854Z,18.25
2022-08-05T23:26:05.894Z,18.20
2022-08-05T23:28:38.953Z,18.11
2022-08-05T23:31:17.251Z,18.03
2022-08-05T23:34:04.848Z,17.98
2022-08-05T23:36:41.578Z,17.96
2022-08-05T23:39:31.855Z,17.93
2022-08-05T23:42:04.773Z,17.89
2022-08-05T23:44:40.758Z,17.88
2022-08-05T23:47:16.453Z,17.87
2022-08-05T23:49:48.280Z,17.89
2022-08-05T23:52:29.250Z,17.91
2022-08-05T23:55:08.887Z,17.91
2022-08-05T23:57:41.144Z,17.91
